sensor_id;sensor_type;location;lat;lon;timestamp;P1;durP1;ratioP1;P2;durP2;ratioP2
64498;SDS011;51087;55.718;21.122;2022-09-02T00:00:42;2.75;;;1.60;;
64498;SDS011;51087;55.718;21.122;2022-09-02T00:03:10;3.33;;;1.15;;
64498;SDS011;51087;55.718;21.122;2022-09-02T00:05:36;3.17;;;1.20;;
64498;SDS011;51087;55.718;21.122;2022-09-02T00:08:02;2.13;;;1.20;;
64498;SDS011;51087;55.718;21.122;2022-09-02T00:10:29;2.20;;;1.30;;
64498;SDS011;51087;55.718;21.122;2022-09-02T00:12:55;2.42;;;1.50;;
64498;SDS011;51087;55.718;21.122;2022-09-02T00:15:21;4.15;;;1.65;;
64498;SDS011;51087;55.718;21.122;2022-09-02T00:17:47;8.88;;;1.95;;
64498;SDS011;51087;55.718;21.122;2022-09-02T00:20:12;5.60;;;1.58;;
64498;SDS011;51087;55.718;21.122;2022-09-02T00:22:39;3.33;;;1.73;;
64498;SDS011;51087;55.718;21.122;2022-09-02T00:25:05;6.65;;;1.70;;
64498;SDS011;51087;55.718;21.122;2022-09-02T00:27:31;2.88;;;1.48;;
64498;SDS011;51087;55.718;21.122;2022-09-02T00:29:56;2.17;;;1.33;;
64498;SDS011;51087;55.718;21.122;2022-09-02T00:32:22;1.90;;;1.27;;
64498;SDS011;51087;55.718;21.122;2022-09-02T00:34:47;1.70;;;1.08;;
64498;SDS011;51087;55.718;21.122;2022-09-02T00:37:13;2.47;;;1.30;;
64498;SDS011;51087;55.718;21.122;2022-09-02T00:39:39;3.08;;;1.42;;
64498;SDS011;51087;55.718;21.122;2022-09-02T00:42:04;1.77;;;1.30;;
64498;SDS011;51087;55.718;21.122;2022-09-02T00:44:30;2.75;;;1.10;;
64498;SDS011;51087;55.718;21.122;2022-09-02T00:46:58;2.72;;;1.20;;
64498;SDS011;51087;55.718;21.122;2022-09-02T00:49:25;1.77;;;1.10;;
64498;SDS011;51087;55.718;21.122;2022-09-02T00:52:01;4.63;;;1.20;;
64498;SDS011;51087;55.718;21.122;2022-09-02T00:54:28;1.90;;;1.25;;
64498;SDS011;51087;55.718;21.122;2022-09-02T00:56:56;3.22;;;1.30;;
64498;SDS011;51087;55.718;21.122;2022-09-02T00:59:25;2.95;;;1.30;;
64498;SDS011;51087;55.718;21.122;2022-09-02T01:02:00;2.88;;;1.42;;
64498;SDS011;51087;55.718;21.122;2022-09-02T01:04:25;6.57;;;1.30;;
64498;SDS011;51087;55.718;21.122;2022-09-02T01:06:51;7.18;;;1.58;;
64498;SDS011;51087;55.718;21.122;2022-09-02T01:09:17;3.33;;;1.40;;
64498;SDS011;51087;55.718;21.122;2022-09-02T01:11:46;4.60;;;1.70;;
64498;SDS011;51087;55.718;21.122;2022-09-02T01:14:14;2.92;;;1.40;;
64498;SDS011;51087;55.718;21.122;2022-09-02T01:16:45;6.78;;;1.55;;
64498;SDS011;51087;55.718;21.122;2022-09-02T01:19:22;6.30;;;1.65;;
64498;SDS011;51087;55.718;21.122;2022-09-02T01:21:52;1.98;;;1.40;;
64498;SDS011;51087;55.718;21.122;2022-09-02T01:24:19;2.55;;;1.58;;
64498;SDS011;51087;55.718;21.122;2022-09-02T01:26:46;3.90;;;1.70;;
64498;SDS011;51087;55.718;21.122;2022-09-02T01:29:12;5.18;;;1.58;;
64498;SDS011;51087;55.718;21.122;2022-09-02T01:31:40;4.13;;;1.50;;
64498;SDS011;51087;55.718;21.122;2022-09-02T01:34:05;6.75;;;1.65;;
64498;SDS011;51087;55.718;21.122;2022-09-02T01:36:32;4.25;;;1.80;;
64498;SDS011;51087;55.718;21.122;2022-09-02T01:39:01;4.35;;;1.90;;
64498;SDS011;51087;55.718;21.122;2022-09-02T01:41:27;4.47;;;1.50;;
64498;SDS011;51087;55.718;21.122;2022-09-02T01:43:52;9.98;;;1.85;;
64498;SDS011;51087;55.718;21.122;2022-09-02T01:46:18;2.80;;;1.30;;
64498;SDS011;51087;55.718;21.122;2022-09-02T01:48:44;7.75;;;1.60;;
64498;SDS011;51087;55.718;21.122;2022-09-02T01:51:14;3.47;;;1.70;;
64498;SDS011;51087;55.718;21.122;2022-09-02T01:53:41;6.05;;;1.70;;
64498;SDS011;51087;55.718;21.122;2022-09-02T01:56:06;3.60;;;1.70;;
64498;SDS011;51087;55.718;21.122;2022-09-02T01:58:32;4.45;;;1.55;;
64498;SDS011;51087;55.718;21.122;2022-09-02T02:00:57;7.70;;;1.65;;
64498;SDS011;51087;55.718;21.122;2022-09-02T02:03:23;4.25;;;1.55;;
64498;SDS011;51087;55.718;21.122;2022-09-02T02:05:49;2.67;;;1.65;;
64498;SDS011;51087;55.718;21.122;2022-09-02T02:08:14;6.43;;;1.60;;
64498;SDS011;51087;55.718;21.122;2022-09-02T02:10:41;6.00;;;1.40;;
64498;SDS011;51087;55.718;21.122;2022-09-02T02:13:07;3.97;;;1.52;;
64498;SDS011;51087;55.718;21.122;2022-09-02T02:15:35;5.88;;;2.03;;
64498;SDS011;51087;55.718;21.122;2022-09-02T02:18:02;6.22;;;1.80;;
64498;SDS011;51087;55.718;21.122;2022-09-02T02:20:27;11.63;;;2.03;;
64498;SDS011;51087;55.718;21.122;2022-09-02T02:22:53;6.47;;;1.60;;
64498;SDS011;51087;55.718;21.122;2022-09-02T02:25:19;4.00;;;1.60;;
64498;SDS011;51087;55.718;21.122;2022-09-02T02:27:44;6.32;;;1.73;;
64498;SDS011;51087;55.718;21.122;2022-09-02T02:30:11;6.53;;;1.80;;
64498;SDS011;51087;55.718;21.122;2022-09-02T02:32:38;3.28;;;1.90;;
64498;SDS011;51087;55.718;21.122;2022-09-02T02:35:04;11.77;;;2.10;;
64498;SDS011;51087;55.718;21.122;2022-09-02T02:37:29;8.55;;;2.10;;
64498;SDS011;51087;55.718;21.122;2022-09-02T02:39:55;7.45;;;2.00;;
64498;SDS011;51087;55.718;21.122;2022-09-02T02:42:21;9.85;;;1.88;;
64498;SDS011;51087;55.718;21.122;2022-09-02T02:44:47;9.48;;;2.05;;
64498;SDS011;51087;55.718;21.122;2022-09-02T02:47:12;4.80;;;1.88;;
64498;SDS011;51087;55.718;21.122;2022-09-02T02:49:38;7.68;;;2.25;;
64498;SDS011;51087;55.718;21.122;2022-09-02T02:52:07;11.45;;;2.00;;
64498;SDS011;51087;55.718;21.122;2022-09-02T02:54:32;3.50;;;1.67;;
64498;SDS011;51087;55.718;21.122;2022-09-02T02:56:58;9.00;;;1.80;;
64498;SDS011;51087;55.718;21.122;2022-09-02T02:59:24;3.80;;;1.70;;
64498;SDS011;51087;55.718;21.122;2022-09-02T03:01:50;6.07;;;1.70;;
64498;SDS011;51087;55.718;21.122;2022-09-02T03:04:15;10.98;;;1.83;;
64498;SDS011;51087;55.718;21.122;2022-09-02T03:06:41;9.73;;;1.88;;
64498;SDS011;51087;55.718;21.122;2022-09-02T03:09:06;10.00;;;1.80;;
64498;SDS011;51087;55.718;21.122;2022-09-02T03:11:32;8.70;;;2.13;;
64498;SDS011;51087;55.718;21.122;2022-09-02T03:13:57;6.93;;;2.10;;
64498;SDS011;51087;55.718;21.122;2022-09-02T03:16:23;9.75;;;2.20;;
64498;SDS011;51087;55.718;21.122;2022-09-02T03:18:49;16.90;;;2.28;;
64498;SDS011;51087;55.718;21.122;2022-09-02T03:21:15;10.40;;;1.83;;
64498;SDS011;51087;55.718;21.122;2022-09-02T03:23:41;8.52;;;2.05;;
64498;SDS011;51087;55.718;21.122;2022-09-02T03:26:08;7.20;;;2.50;;
64498;SDS011;51087;55.718;21.122;2022-09-02T03:28:35;11.35;;;3.33;;
64498;SDS011;51087;55.718;21.122;2022-09-02T03:31:00;6.03;;;2.20;;
64498;SDS011;51087;55.718;21.122;2022-09-02T03:33:26;8.40;;;2.22;;
64498;SDS011;51087;55.718;21.122;2022-09-02T03:35:51;10.18;;;2.35;;
64498;SDS011;51087;55.718;21.122;2022-09-02T03:38:17;9.60;;;2.40;;
64498;SDS011;51087;55.718;21.122;2022-09-02T03:40:43;6.82;;;2.15;;
64498;SDS011;51087;55.718;21.122;2022-09-02T03:43:08;7.32;;;2.28;;
64498;SDS011;51087;55.718;21.122;2022-09-02T03:45:34;10.13;;;2.50;;
64498;SDS011;51087;55.718;21.122;2022-09-02T03:47:59;10.40;;;3.17;;
64498;SDS011;51087;55.718;21.122;2022-09-02T03:50:27;7.03;;;2.83;;
64498;SDS011;51087;55.718;21.122;2022-09-02T03:52:55;9.55;;;2.55;;
64498;SDS011;51087;55.718;21.122;2022-09-02T03:55:23;5.10;;;1.80;;
64498;SDS011;51087;55.718;21.122;2022-09-02T03:57:49;9.95;;;1.85;;
64498;SDS011;51087;55.718;21.122;2022-09-02T04:00:16;9.90;;;1.73;;
64498;SDS011;51087;55.718;21.122;2022-09-02T04:02:43;7.00;;;2.25;;
64498;SDS011;51087;55.718;21.122;2022-09-02T04:05:09;4.97;;;1.90;;
64498;SDS011;51087;55.718;21.122;2022-09-02T04:07:36;6.40;;;1.77;;
64498;SDS011;51087;55.718;21.122;2022-09-02T04:10:03;8.63;;;1.65;;
64498;SDS011;51087;55.718;21.122;2022-09-02T04:12:29;5.57;;;1.77;;
64498;SDS011;51087;55.718;21.122;2022-09-02T04:14:54;4.93;;;1.52;;
64498;SDS011;51087;55.718;21.122;2022-09-02T04:17:20;5.03;;;1.73;;
64498;SDS011;51087;55.718;21.122;2022-09-02T04:19:45;6.70;;;1.88;;
64498;SDS011;51087;55.718;21.122;2022-09-02T04:22:10;2.78;;;1.83;;
64498;SDS011;51087;55.718;21.122;2022-09-02T04:24:36;4.72;;;1.70;;
64498;SDS011;51087;55.718;21.122;2022-09-02T04:27:02;6.72;;;1.92;;
64498;SDS011;51087;55.718;21.122;2022-09-02T04:29:28;4.97;;;1.88;;
64498;SDS011;51087;55.718;21.122;2022-09-02T04:31:55;2.53;;;1.73;;
64498;SDS011;51087;55.718;21.122;2022-09-02T04:34:20;10.35;;;2.20;;
64498;SDS011;51087;55.718;21.122;2022-09-02T04:36:46;5.18;;;2.58;;
64498;SDS011;51087;55.718;21.122;2022-09-02T04:39:11;10.02;;;2.40;;
64498;SDS011;51087;55.718;21.122;2022-09-02T04:41:37;6.57;;;2.75;;
64498;SDS011;51087;55.718;21.122;2022-09-02T04:44:03;11.10;;;3.05;;
64498;SDS011;51087;55.718;21.122;2022-09-02T04:46:29;15.48;;;3.05;;
64498;SDS011;51087;55.718;21.122;2022-09-02T04:48:55;11.43;;;3.08;;
64498;SDS011;51087;55.718;21.122;2022-09-02T04:51:23;10.27;;;3.35;;
64498;SDS011;51087;55.718;21.122;2022-09-02T04:53:50;8.20;;;3.55;;
64498;SDS011;51087;55.718;21.122;2022-09-02T04:56:18;16.50;;;4.03;;
64498;SDS011;51087;55.718;21.122;2022-09-02T04:58:49;13.52;;;4.25;;
64498;SDS011;51087;55.718;21.122;2022-09-02T05:01:29;13.98;;;4.13;;
64498;SDS011;51087;55.718;21.122;2022-09-02T05:03:57;18.92;;;5.35;;
64498;SDS011;51087;55.718;21.122;2022-09-02T05:06:24;14.27;;;3.33;;
64498;SDS011;51087;55.718;21.122;2022-09-02T05:08:51;23.50;;;3.25;;
64498;SDS011;51087;55.718;21.122;2022-09-02T05:11:20;15.15;;;4.07;;
64498;SDS011;51087;55.718;21.122;2022-09-02T05:13:47;14.35;;;3.50;;
64498;SDS011;51087;55.718;21.122;2022-09-02T05:16:19;26.38;;;6.55;;
64498;SDS011;51087;55.718;21.122;2022-09-02T05:18:47;16.05;;;3.65;;
64498;SDS011;51087;55.718;21.122;2022-09-02T05:21:13;18.52;;;3.95;;
64498;SDS011;51087;55.718;21.122;2022-09-02T05:23:39;18.15;;;4.13;;
64498;SDS011;51087;55.718;21.122;2022-09-02T05:26:05;11.15;;;3.90;;
64498;SDS011;51087;55.718;21.122;2022-09-02T05:28:32;10.32;;;3.53;;
64498;SDS011;51087;55.718;21.122;2022-09-02T05:31:17;17.98;;;3.17;;
64498;SDS011;51087;55.718;21.122;2022-09-02T05:33:44;12.27;;;2.80;;
64498;SDS011;51087;55.718;21.122;2022-09-02T05:36:11;9.65;;;4.38;;
64498;SDS011;51087;55.718;21.122;2022-09-02T05:38:44;8.02;;;3.47;;
64498;SDS011;51087;55.718;21.122;2022-09-02T05:41:11;28.10;;;5.00;;
64498;SDS011;51087;55.718;21.122;2022-09-02T05:43:43;16.33;;;3.90;;
64498;SDS011;51087;55.718;21.122;2022-09-02T05:46:10;9.35;;;3.47;;
64498;SDS011;51087;55.718;21.122;2022-09-02T05:48:38;12.95;;;4.60;;
64498;SDS011;51087;55.718;21.122;2022-09-02T05:53:52;16.88;;;3.78;;
64498;SDS011;51087;55.718;21.122;2022-09-02T05:56:19;10.43;;;3.47;;
64498;SDS011;51087;55.718;21.122;2022-09-02T05:58:46;11.95;;;3.00;;
64498;SDS011;51087;55.718;21.122;2022-09-02T06:01:12;5.45;;;2.60;;
64498;SDS011;51087;55.718;21.122;2022-09-02T06:03:39;8.77;;;2.80;;
64498;SDS011;51087;55.718;21.122;2022-09-02T06:06:05;15.95;;;3.58;;
64498;SDS011;51087;55.718;21.122;2022-09-02T06:08:31;5.50;;;1.85;;
64498;SDS011;51087;55.718;21.122;2022-09-02T06:10:58;8.60;;;1.70;;
64498;SDS011;51087;55.718;21.122;2022-09-02T06:13:29;21.45;;;7.47;;
64498;SDS011;51087;55.718;21.122;2022-09-02T06:15:55;5.65;;;1.60;;
64498;SDS011;51087;55.718;21.122;2022-09-02T06:18:21;6.95;;;2.65;;
64498;SDS011;51087;55.718;21.122;2022-09-02T06:20:48;8.40;;;2.88;;
64498;SDS011;51087;55.718;21.122;2022-09-02T06:23:14;6.63;;;1.40;;
64498;SDS011;51087;55.718;21.122;2022-09-02T06:25:42;7.57;;;1.58;;
64498;SDS011;51087;55.718;21.122;2022-09-02T06:28:09;7.97;;;2.65;;
64498;SDS011;51087;55.718;21.122;2022-09-02T06:30:40;7.47;;;2.10;;
64498;SDS011;51087;55.718;21.122;2022-09-02T06:33:07;9.25;;;1.85;;
64498;SDS011;51087;55.718;21.122;2022-09-02T06:35:35;5.28;;;2.42;;
64498;SDS011;51087;55.718;21.122;2022-09-02T06:38:03;9.75;;;2.58;;
64498;SDS011;51087;55.718;21.122;2022-09-02T06:40:29;8.50;;;3.75;;
64498;SDS011;51087;55.718;21.122;2022-09-02T06:42:54;3.13;;;1.80;;
64498;SDS011;51087;55.718;21.122;2022-09-02T06:45:20;4.15;;;2.00;;
64498;SDS011;51087;55.718;21.122;2022-09-02T06:47:48;4.72;;;2.00;;
64498;SDS011;51087;55.718;21.122;2022-09-02T06:50:14;10.50;;;2.10;;
64498;SDS011;51087;55.718;21.122;2022-09-02T06:52:39;8.57;;;1.75;;
64498;SDS011;51087;55.718;21.122;2022-09-02T06:55:05;7.07;;;2.05;;
64498;SDS011;51087;55.718;21.122;2022-09-02T06:57:31;3.28;;;1.48;;
64498;SDS011;51087;55.718;21.122;2022-09-02T06:59:57;2.95;;;0.80;;
64498;SDS011;51087;55.718;21.122;2022-09-02T07:02:22;1.10;;;0.57;;
64498;SDS011;51087;55.718;21.122;2022-09-02T07:04:48;2.50;;;0.60;;
64498;SDS011;51087;55.718;21.122;2022-09-02T07:07:33;1.75;;;0.60;;
64498;SDS011;51087;55.718;21.122;2022-09-02T07:10:03;1.10;;;0.60;;
64498;SDS011;51087;55.718;21.122;2022-09-02T07:12:30;2.20;;;0.70;;
64498;SDS011;51087;55.718;21.122;2022-09-02T07:14:57;0.50;;;0.50;;
64498;SDS011;51087;55.718;21.122;2022-09-02T07:17:23;1.20;;;0.70;;
64498;SDS011;51087;55.718;21.122;2022-09-02T07:19:49;2.40;;;0.68;;
64498;SDS011;51087;55.718;21.122;2022-09-02T07:22:15;1.02;;;0.45;;
64498;SDS011;51087;55.718;21.122;2022-09-02T07:24:41;1.08;;;0.60;;
64498;SDS011;51087;55.718;21.122;2022-09-02T07:27:07;0.90;;;0.50;;
64498;SDS011;51087;55.718;21.122;2022-09-02T07:29:33;3.70;;;0.50;;
64498;SDS011;51087;55.718;21.122;2022-09-02T07:31:59;2.45;;;0.88;;
64498;SDS011;51087;55.718;21.122;2022-09-02T07:34:24;3.38;;;0.70;;
64498;SDS011;51087;55.718;21.122;2022-09-02T07:36:50;0.60;;;0.50;;
64498;SDS011;51087;55.718;21.122;2022-09-02T07:39:17;0.98;;;0.60;;
64498;SDS011;51087;55.718;21.122;2022-09-02T07:41:44;1.55;;;0.93;;
64498;SDS011;51087;55.718;21.122;2022-09-02T07:44:13;2.17;;;0.90;;
64498;SDS011;51087;55.718;21.122;2022-09-02T07:46:39;1.27;;;0.47;;
64498;SDS011;51087;55.718;21.122;2022-09-02T07:49:06;0.93;;;0.50;;
64498;SDS011;51087;55.718;21.122;2022-09-02T07:51:34;0.40;;;0.40;;
64498;SDS011;51087;55.718;21.122;2022-09-02T07:54:02;3.05;;;0.60;;
64498;SDS011;51087;55.718;21.122;2022-09-02T07:56:29;3.20;;;0.70;;
64498;SDS011;51087;55.718;21.122;2022-09-02T07:58:55;3.35;;;0.80;;
64498;SDS011;51087;55.718;21.122;2022-09-02T08:01:20;2.20;;;0.88;;
64498;SDS011;51087;55.718;21.122;2022-09-02T08:03:46;2.05;;;0.60;;
64498;SDS011;51087;55.718;21.122;2022-09-02T08:06:12;2.25;;;0.60;;
64498;SDS011;51087;55.718;21.122;2022-09-02T08:08:38;1.35;;;0.43;;
64498;SDS011;51087;55.718;21.122;2022-09-02T08:11:05;1.02;;;0.50;;
64498;SDS011;51087;55.718;21.122;2022-09-02T08:13:31;1.85;;;0.40;;
64498;SDS011;51087;55.718;21.122;2022-09-02T08:15:57;1.38;;;0.73;;
64498;SDS011;51087;55.718;21.122;2022-09-02T08:18:23;5.10;;;1.00;;
64498;SDS011;51087;55.718;21.122;2022-09-02T08:20:49;1.05;;;0.70;;
64498;SDS011;51087;55.718;21.122;2022-09-02T08:23:15;0.85;;;0.70;;
64498;SDS011;51087;55.718;21.122;2022-09-02T08:25:40;1.25;;;0.50;;
64498;SDS011;51087;55.718;21.122;2022-09-02T08:28:07;0.77;;;0.60;;
64498;SDS011;51087;55.718;21.122;2022-09-02T08:30:33;1.90;;;0.60;;
64498;SDS011;51087;55.718;21.122;2022-09-02T08:32:59;1.70;;;0.80;;
64498;SDS011;51087;55.718;21.122;2022-09-02T08:35:24;1.77;;;0.80;;
64498;SDS011;51087;55.718;21.122;2022-09-02T08:37:50;2.80;;;0.50;;
64498;SDS011;51087;55.718;21.122;2022-09-02T08:40:17;1.17;;;0.73;;
64498;SDS011;51087;55.718;21.122;2022-09-02T08:42:48;1.60;;;0.60;;
64498;SDS011;51087;55.718;21.122;2022-09-02T08:45:32;1.20;;;0.32;;
64498;SDS011;51087;55.718;21.122;2022-09-02T08:50:48;0.95;;;0.32;;
64498;SDS011;51087;55.718;21.122;2022-09-02T08:55:54;1.17;;;0.50;;
64498;SDS011;51087;55.718;21.122;2022-09-02T08:58:23;5.13;;;3.15;;
64498;SDS011;51087;55.718;21.122;2022-09-02T09:01:08;2.25;;;0.45;;
64498;SDS011;51087;55.718;21.122;2022-09-02T09:12:17;0.90;;;0.50;;
64498;SDS011;51087;55.718;21.122;2022-09-02T09:15:21;3.55;;;3.03;;
64498;SDS011;51087;55.718;21.122;2022-09-02T09:17:57;2.15;;;0.50;;
64498;SDS011;51087;55.718;21.122;2022-09-02T09:20:25;2.53;;;0.40;;
64498;SDS011;51087;55.718;21.122;2022-09-02T09:22:56;2.13;;;0.40;;
64498;SDS011;51087;55.718;21.122;2022-09-02T09:25:24;2.80;;;1.23;;
64498;SDS011;51087;55.718;21.122;2022-09-02T09:27:55;0.90;;;0.45;;
64498;SDS011;51087;55.718;21.122;2022-09-02T09:30:25;1.48;;;0.40;;
64498;SDS011;51087;55.718;21.122;2022-09-02T09:32:51;1.10;;;0.40;;
64498;SDS011;51087;55.718;21.122;2022-09-02T09:35:20;1.33;;;0.50;;
64498;SDS011;51087;55.718;21.122;2022-09-02T09:37:46;0.22;;;0.22;;
64498;SDS011;51087;55.718;21.122;2022-09-02T09:45:27;0.30;;;0.30;;
64498;SDS011;51087;55.718;21.122;2022-09-02T09:50:34;3.05;;;0.50;;
64498;SDS011;51087;55.718;21.122;2022-09-02T09:53:13;0.90;;;0.40;;
64498;SDS011;51087;55.718;21.122;2022-09-02T09:58:17;3.53;;;0.30;;
64498;SDS011;51087;55.718;21.122;2022-09-02T10:00:43;2.60;;;0.50;;
64498;SDS011;51087;55.718;21.122;2022-09-02T10:03:09;1.02;;;0.35;;
64498;SDS011;51087;55.718;21.122;2022-09-02T10:05:46;2.47;;;0.50;;
64498;SDS011;51087;55.718;21.122;2022-09-02T10:10:40;1.55;;;0.40;;
64498;SDS011;51087;55.718;21.122;2022-09-02T10:13:31;1.30;;;0.40;;
64498;SDS011;51087;55.718;21.122;2022-09-02T10:26:58;0.47;;;0.40;;
64498;SDS011;51087;55.718;21.122;2022-09-02T10:29:29;0.93;;;0.40;;
64498;SDS011;51087;55.718;21.122;2022-09-02T10:35:27;0.40;;;0.30;;
64498;SDS011;51087;55.718;21.122;2022-09-02T10:37:48;0.40;;;0.30;;
64498;SDS011;51087;55.718;21.122;2022-09-02T10:45:36;0.95;;;0.45;;
64498;SDS011;51087;55.718;21.122;2022-09-02T10:56:53;0.90;;;0.38;;
64498;SDS011;51087;55.718;21.122;2022-09-02T10:59:38;0.35;;;0.30;;
64498;SDS011;51087;55.718;21.122;2022-09-02T11:07:34;2.38;;;0.40;;
64498;SDS011;51087;55.718;21.122;2022-09-02T11:10:12;0.30;;;0.30;;
64498;SDS011;51087;55.718;21.122;2022-09-02T11:12:49;1.65;;;0.65;;
64498;SDS011;51087;55.718;21.122;2022-09-02T11:18:34;0.47;;;0.40;;
64498;SDS011;51087;55.718;21.122;2022-09-02T11:21:23;0.65;;;0.40;;
64498;SDS011;51087;55.718;21.122;2022-09-02T11:26:47;0.35;;;0.30;;
64498;SDS011;51087;55.718;21.122;2022-09-02T11:29:34;0.82;;;0.40;;
64498;SDS011;51087;55.718;21.122;2022-09-02T11:32:16;2.38;;;0.40;;
64498;SDS011;51087;55.718;21.122;2022-09-02T11:34:47;0.30;;;0.30;;
64498;SDS011;51087;55.718;21.122;2022-09-02T11:37:32;0.30;;;0.30;;
64498;SDS011;51087;55.718;21.122;2022-09-02T11:40:02;0.30;;;0.30;;
64498;SDS011;51087;55.718;21.122;2022-09-02T11:50:46;0.70;;;0.40;;
64498;SDS011;51087;55.718;21.122;2022-09-02T11:55:45;3.40;;;0.70;;
64498;SDS011;51087;55.718;21.122;2022-09-02T11:58:30;3.90;;;0.70;;
64498;SDS011;51087;55.718;21.122;2022-09-02T12:03:25;1.15;;;0.40;;
64498;SDS011;51087;55.718;21.122;2022-09-02T12:06:06;1.20;;;0.50;;
64498;SDS011;51087;55.718;21.122;2022-09-02T12:11:07;2.75;;;0.50;;
64498;SDS011;51087;55.718;21.122;2022-09-02T12:13:40;4.80;;;0.45;;
64498;SDS011;51087;55.718;21.122;2022-09-02T12:21:31;2.80;;;0.40;;
64498;SDS011;51087;55.718;21.122;2022-09-02T12:26:25;1.02;;;0.40;;
64498;SDS011;51087;55.718;21.122;2022-09-02T12:28:53;0.52;;;0.45;;
64498;SDS011;51087;55.718;21.122;2022-09-02T12:31:38;1.23;;;0.60;;
64498;SDS011;51087;55.718;21.122;2022-09-02T12:36:48;3.30;;;0.45;;
64498;SDS011;51087;55.718;21.122;2022-09-02T12:57:50;0.50;;;0.40;;
64498;SDS011;51087;55.718;21.122;2022-09-02T13:00:38;1.67;;;0.60;;
64498;SDS011;51087;55.718;21.122;2022-09-02T13:03:40;0.50;;;0.50;;
64498;SDS011;51087;55.718;21.122;2022-09-02T13:06:26;0.82;;;0.80;;
64498;SDS011;51087;55.718;21.122;2022-09-02T13:17:16;1.27;;;0.50;;
64498;SDS011;51087;55.718;21.122;2022-09-02T13:33:23;0.63;;;0.40;;
64498;SDS011;51087;55.718;21.122;2022-09-02T13:35:54;0.47;;;0.47;;
64498;SDS011;51087;55.718;21.122;2022-09-02T13:38:23;2.20;;;0.55;;
64498;SDS011;51087;55.718;21.122;2022-09-02T13:40:50;0.47;;;0.40;;
64498;SDS011;51087;55.718;21.122;2022-09-02T13:43:17;2.05;;;0.95;;
64498;SDS011;51087;55.718;21.122;2022-09-02T13:45:45;1.27;;;0.50;;
64498;SDS011;51087;55.718;21.122;2022-09-02T13:48:17;0.77;;;0.60;;
64498;SDS011;51087;55.718;21.122;2022-09-02T13:50:46;3.63;;;0.70;;
64498;SDS011;51087;55.718;21.122;2022-09-02T13:53:19;2.85;;;1.13;;
64498;SDS011;51087;55.718;21.122;2022-09-02T13:56:07;1.08;;;0.70;;
64498;SDS011;51087;55.718;21.122;2022-09-02T13:58:54;1.00;;;0.50;;
64498;SDS011;51087;55.718;21.122;2022-09-02T14:01:32;1.95;;;0.70;;
64498;SDS011;51087;55.718;21.122;2022-09-02T14:04:01;1.45;;;0.70;;
64498;SDS011;51087;55.718;21.122;2022-09-02T14:06:51;0.50;;;0.40;;
64498;SDS011;51087;55.718;21.122;2022-09-02T14:09:25;1.98;;;0.80;;
64498;SDS011;51087;55.718;21.122;2022-09-02T14:11:54;0.70;;;0.55;;
64498;SDS011;51087;55.718;21.122;2022-09-02T14:14:22;0.82;;;0.60;;
64498;SDS011;51087;55.718;21.122;2022-09-02T14:16:48;0.40;;;0.40;;
64498;SDS011;51087;55.718;21.122;2022-09-02T14:24:13;1.55;;;0.50;;
64498;SDS011;51087;55.718;21.122;2022-09-02T14:26:43;1.75;;;0.50;;
64498;SDS011;51087;55.718;21.122;2022-09-02T14:29:14;1.67;;;0.52;;
64498;SDS011;51087;55.718;21.122;2022-09-02T14:31:41;0.47;;;0.47;;
64498;SDS011;51087;55.718;21.122;2022-09-02T14:36:59;2.47;;;0.93;;
64498;SDS011;51087;55.718;21.122;2022-09-02T14:39:49;0.30;;;0.30;;
64498;SDS011;51087;55.718;21.122;2022-09-02T14:42:45;0.70;;;0.50;;
64498;SDS011;51087;55.718;21.122;2022-09-02T14:45:12;1.65;;;0.43;;
64498;SDS011;51087;55.718;21.122;2022-09-02T14:47:39;1.02;;;0.50;;
64498;SDS011;51087;55.718;21.122;2022-09-02T14:50:09;3.70;;;0.60;;
64498;SDS011;51087;55.718;21.122;2022-09-02T14:52:37;0.57;;;0.50;;
64498;SDS011;51087;55.718;21.122;2022-09-02T14:55:37;2.30;;;0.73;;
64498;SDS011;51087;55.718;21.122;2022-09-02T14:58:05;0.73;;;0.45;;
64498;SDS011;51087;55.718;21.122;2022-09-02T15:00:30;1.38;;;0.60;;
64498;SDS011;51087;55.718;21.122;2022-09-02T15:02:56;2.30;;;0.70;;
64498;SDS011;51087;55.718;21.122;2022-09-02T15:05:24;1.50;;;0.65;;
64498;SDS011;51087;55.718;21.122;2022-09-02T15:07:51;2.08;;;0.93;;
64498;SDS011;51087;55.718;21.122;2022-09-02T15:10:16;2.33;;;0.90;;
64498;SDS011;51087;55.718;21.122;2022-09-02T15:12:47;1.88;;;0.85;;
64498;SDS011;51087;55.718;21.122;2022-09-02T15:15:15;1.25;;;0.90;;
64498;SDS011;51087;55.718;21.122;2022-09-02T15:17:40;2.08;;;0.60;;
64498;SDS011;51087;55.718;21.122;2022-09-02T15:20:06;1.20;;;0.70;;
64498;SDS011;51087;55.718;21.122;2022-09-02T15:22:34;2.05;;;0.82;;
64498;SDS011;51087;55.718;21.122;2022-09-02T15:25:00;0.90;;;0.70;;
64498;SDS011;51087;55.718;21.122;2022-09-02T15:27:26;6.40;;;3.28;;
64498;SDS011;51087;55.718;21.122;2022-09-02T15:29:52;2.33;;;1.50;;
64498;SDS011;51087;55.718;21.122;2022-09-02T15:32:17;1.33;;;0.70;;
64498;SDS011;51087;55.718;21.122;2022-09-02T15:34:43;3.25;;;1.10;;
64498;SDS011;51087;55.718;21.122;2022-09-02T15:37:08;1.88;;;0.68;;
64498;SDS011;51087;55.718;21.122;2022-09-02T15:39:34;2.80;;;0.95;;
64498;SDS011;51087;55.718;21.122;2022-09-02T15:42:00;1.75;;;0.80;;
64498;SDS011;51087;55.718;21.122;2022-09-02T15:44:26;2.10;;;1.10;;
64498;SDS011;51087;55.718;21.122;2022-09-02T15:46:52;1.88;;;0.80;;
64498;SDS011;51087;55.718;21.122;2022-09-02T15:49:18;1.55;;;0.50;;
64498;SDS011;51087;55.718;21.122;2022-09-02T15:51:45;4.57;;;1.70;;
64498;SDS011;51087;55.718;21.122;2022-09-02T15:54:13;8.25;;;4.03;;
64498;SDS011;51087;55.718;21.122;2022-09-02T15:56:41;5.38;;;2.78;;
64498;SDS011;51087;55.718;21.122;2022-09-02T15:59:09;2.63;;;0.88;;
64498;SDS011;51087;55.718;21.122;2022-09-02T16:01:40;1.58;;;0.73;;
64498;SDS011;51087;55.718;21.122;2022-09-02T16:04:08;5.30;;;2.45;;
64498;SDS011;51087;55.718;21.122;2022-09-02T16:06:36;4.18;;;0.70;;
64498;SDS011;51087;55.718;21.122;2022-09-02T16:09:04;0.40;;;0.40;;
64498;SDS011;51087;55.718;21.122;2022-09-02T16:11:30;2.72;;;1.30;;
64498;SDS011;51087;55.718;21.122;2022-09-02T16:13:56;3.17;;;0.80;;
64498;SDS011;51087;55.718;21.122;2022-09-02T16:16:22;1.05;;;0.60;;
64498;SDS011;51087;55.718;21.122;2022-09-02T16:18:51;4.68;;;2.58;;
64498;SDS011;51087;55.718;21.122;2022-09-02T16:21:17;7.82;;;4.07;;
64498;SDS011;51087;55.718;21.122;2022-09-02T16:23:44;3.17;;;1.35;;
64498;SDS011;51087;55.718;21.122;2022-09-02T16:26:11;3.10;;;0.60;;
64498;SDS011;51087;55.718;21.122;2022-09-02T16:28:46;1.73;;;0.88;;
64498;SDS011;51087;55.718;21.122;2022-09-02T16:31:13;4.72;;;1.00;;
64498;SDS011;51087;55.718;21.122;2022-09-02T16:33:54;1.92;;;0.77;;
64498;SDS011;51087;55.718;21.122;2022-09-02T16:36:21;3.85;;;2.15;;
64498;SDS011;51087;55.718;21.122;2022-09-02T16:38:47;2.45;;;0.82;;
64498;SDS011;51087;55.718;21.122;2022-09-02T16:41:33;2.58;;;0.65;;
64498;SDS011;51087;55.718;21.122;2022-09-02T16:44:00;13.63;;;5.95;;
64498;SDS011;51087;55.718;21.122;2022-09-02T16:46:28;2.00;;;0.70;;
64498;SDS011;51087;55.718;21.122;2022-09-02T16:48:54;1.52;;;1.05;;
64498;SDS011;51087;55.718;21.122;2022-09-02T16:51:20;4.07;;;1.58;;
64498;SDS011;51087;55.718;21.122;2022-09-02T16:53:51;8.63;;;5.38;;
64498;SDS011;51087;55.718;21.122;2022-09-02T16:56:23;1.52;;;0.80;;
64498;SDS011;51087;55.718;21.122;2022-09-02T16:58:50;2.10;;;1.42;;
64498;SDS011;51087;55.718;21.122;2022-09-02T17:01:16;1.45;;;1.00;;
64498;SDS011;51087;55.718;21.122;2022-09-02T17:03:42;4.78;;;2.08;;
64498;SDS011;51087;55.718;21.122;2022-09-02T17:06:10;3.08;;;1.55;;